Time;durP1;ratioP1;P1;durP2;ratioP2;P2;SDS_P1;SDS_P2;PMS_P1;PMS_P2;Temp;Humidity;BMP_temperature;BMP_pressure;BME280_temperature;BME280_humidity;BME280_pressure;Samples;Min_cycle;Max_cycle;Signal;HPM_P1;HPM_P2
2022/10/03 00:00:12;;;;;;;23.45;3.83;;;9.90;99.90;;;;;;5045623;28;20041;-69
2022/10/03 00:03:12;;;;;;;24.83;4.35;;;9.90;99.90;;;;;;5041343;28;20033;-70
2022/10/03 00:05:41;;;;;;;31.70;4.70;;;9.80;99.90;;;;;;5029997;28;20098;-69
2022/10/03 00:08:26;;;;;;;26.63;3.75;;;9.80;99.90;;;;;;5044059;28;20166;-70
2022/10/03 00:11:01;;;;;;;25.02;4.60;;;9.90;99.90;;;;;;5040420;28;20045;-69
2022/10/03 00:13:52;;;;;;;26.20;3.70;;;9.80;99.90;;;;;;5071256;28;20037;-69
2022/10/03 00:16:21;;;;;;;21.88;3.92;;;9.60;99.90;;;;;;5046997;28;20591;-69
2022/10/03 00:19:28;;;;;;;30.95;4.15;;;9.80;99.90;;;;;;5059432;28;20049;-69
2022/10/03 00:22:03;;;;;;;21.50;3.90;;;9.60;99.90;;;;;;5048121;28;20168;-69
2022/10/03 00:25:02;;;;;;;20.77;4.13;;;9.60;99.90;;;;;;5073792;28;20040;-70
2022/10/03 00:27:47;;;;;;;23.50;3.88;;;9.70;99.90;;;;;;5042710;28;20038;-69
2022/10/03 00:30:22;;;;;;;26.23;4.50;;;9.70;99.90;;;;;;5060320;28;20498;-69
2022/10/03 00:33:02;;;;;;;26.00;4.22;;;9.60;99.90;;;;;;5044619;28;20079;-69
2022/10/03 00:35:52;;;;;;;23.85;4.32;;;9.60;99.90;;;;;;5038476;28;20045;-69
2022/10/03 00:38:38;;;;;;;28.63;3.97;;;9.70;99.90;;;;;;5075398;28;20044;-69
2022/10/03 00:41:39;;;;;;;24.85;4.10;;;9.60;99.90;;;;;;5043107;28;20044;-69
2022/10/03 00:44:38;;;;;;;23.50;4.38;;;9.70;99.90;;;;;;5079051;28;20040;-68
2022/10/03 00:47:09;;;;;;;22.90;4.03;;;9.60;99.90;;;;;;5040854;28;20041;-69
2022/10/03 00:49:56;;;;;;;22.77;4.10;;;9.60;99.90;;;;;;5074288;28;20041;-69
2022/10/03 00:52:44;;;;;;;22.17;3.90;;;9.50;99.90;;;;;;5046693;28;20121;-70
2022/10/03 00:55:13;;;;;;;26.55;5.60;;;9.60;99.90;;;;;;5074567;28;20044;-70
2022/10/03 00:57:41;;;;;;;33.28;4.45;;;9.50;99.90;;;;;;5075797;28;20377;-69
2022/10/03 01:00:18;;;;;;;22.73;3.50;;;9.60;99.90;;;;;;5074005;28;20116;-69
2022/10/03 01:02:50;;;;;;;26.63;4.07;;;9.70;99.90;;;;;;5075685;28;20041;-70
2022/10/03 01:05:37;;;;;;;24.25;4.78;;;9.60;99.90;;;;;;5046032;28;20048;-69
2022/10/03 01:08:40;;;;;;;20.55;3.70;;;9.60;99.90;;;;;;5041216;28;20501;-69
2022/10/03 01:11:23;;;;;;;21.00;4.18;;;9.50;99.90;;;;;;5022582;28;20208;-69
2022/10/03 01:14:22;;;;;;;30.83;4.72;;;9.60;99.90;;;;;;5041880;28;20260;-70
2022/10/03 01:17:13;;;;;;;21.40;3.78;;;9.60;99.90;;;;;;5039702;28;20072;-69
2022/10/03 01:20:13;;;;;;;25.33;3.97;;;9.60;99.90;;;;;;5044266;28;20041;-68
2022/10/03 01:23:13;;;;;;;29.88;4.35;;;9.40;99.90;;;;;;5044735;28;20476;-69
2022/10/03 01:26:09;;;;;;;22.05;3.95;;;9.40;99.90;;;;;;5073743;28;20060;-69
2022/10/03 01:32:00;;;;;;;29.55;4.28;;;9.30;99.90;;;;;;5019197;28;20477;-69
2022/10/03 01:35:14;;;;;;;23.80;4.10;;;9.40;99.90;;;;;;5073148;28;20066;-69
2022/10/03 01:38:13;;;;;;;23.40;4.53;;;9.60;99.90;;;;;;5039275;28;20048;-69
2022/10/03 01:41:05;;;;;;;29.30;4.47;;;9.60;99.90;;;;;;5046007;28;20033;-69
2022/10/03 01:43:54;;;;;;;31.73;4.55;;;9.60;99.90;;;;;;5053164;28;20079;-68
2022/10/03 01:46:32;;;;;;;36.08;4.32;;;9.50;99.90;;;;;;5051113;28;20120;-68
2022/10/03 01:49:10;;;;;;;29.15;4.15;;;9.60;99.90;;;;;;5048232;28;20174;-67
2022/10/03 01:51:48;;;;;;;29.17;4.00;;;9.60;99.90;;;;;;5038528;28;20076;-68
2022/10/03 01:54:20;;;;;;;26.83;4.93;;;9.50;99.90;;;;;;5042331;28;20040;-68
2022/10/03 01:56:59;;;;;;;21.98;4.03;;;9.60;99.90;;;;;;5040532;28;20488;-67
2022/10/03 01:59:46;;;;;;;21.80;3.58;;;9.70;99.90;;;;;;5048969;28;20037;-67
2022/10/03 02:02:12;;;;;;;30.35;4.22;;;9.50;99.90;;;;;;5043360;28;20075;-68
2022/10/03 02:04:49;;;;;;;32.78;4.45;;;9.60;99.90;;;;;;5040985;28;20068;-67
2022/10/03 02:07:40;;;;;;;29.23;4.18;;;9.60;99.90;;;;;;5068763;28;20042;-67
2022/10/03 02:10:21;;;;;;;28.17;4.53;;;9.60;99.90;;;;;;5039623;28;20033;-67
2022/10/03 02:13:08;;;;;;;28.15;4.05;;;9.50;99.90;;;;;;5072640;28;20030;-67
2022/10/03 02:16:08;;;;;;;25.83;4.05;;;9.60;99.90;;;;;;5048731;28;20052;-67
2022/10/03 02:19:08;;;;;;;30.90;4.47;;;9.70;99.90;;;;;;5045631;28;20051;-67
2022/10/03 02:21:46;;;;;;;20.88;4.60;;;9.70;99.90;;;;;;5047169;28;20037;-67
2022/10/03 02:24:15;;;;;;;31.23;4.05;;;9.60;99.90;;;;;;5043979;28;20120;-68
2022/10/03 02:27:14;;;;;;;27.73;4.22;;;9.60;99.90;;;;;;5045908;28;20273;-68
2022/10/03 02:30:01;;;;;;;24.23;3.90;;;9.60;99.90;;;;;;5070952;28;20058;-69
2022/10/03 02:32:45;;;;;;;28.38;4.35;;;9.50;99.90;;;;;;5042668;28;20113;-68
2022/10/03 02:35:42;;;;;;;25.30;4.55;;;9.40;99.90;;;;;;5046557;28;20488;-68
2022/10/03 02:38:40;;;;;;;28.85;4.50;;;9.50;99.90;;;;;;5038313;28;20033;-68
2022/10/03 02:41:31;;;;;;;23.30;4.07;;;9.60;99.90;;;;;;5058739;28;20041;-68
2022/10/03 02:44:09;;;;;;;27.90;3.80;;;9.60;99.90;;;;;;5044546;28;20139;-68
2022/10/03 02:46:45;;;;;;;29.80;4.35;;;9.50;99.90;;;;;;5042653;28;20037;-67
2022/10/03 02:49:35;;;;;;;28.45;4.82;;;9.70;99.90;;;;;;5043958;28;20045;-68
2022/10/03 02:52:13;;;;;;;27.27;3.70;;;9.70;99.90;;;;;;5070791;28;20399;-67
2022/10/03 02:54:44;;;;;;;26.95;3.83;;;9.70;99.90;;;;;;5045178;28;20033;-68
2022/10/03 02:57:39;;;;;;;25.00;3.95;;;9.60;99.90;;;;;;5066344;28;20045;-68
2022/10/03 03:00:20;;;;;;;23.58;4.30;;;9.60;99.90;;;;;;5072001;28;20041;-67
2022/10/03 03:03:37;;;;;;;23.75;3.67;;;9.60;99.90;;;;;;5059627;28;20388;-67
2022/10/03 03:06:28;;;;;;;20.17;3.95;;;9.50;99.90;;;;;;5049757;28;20040;-68
2022/10/03 03:09:14;;;;;;;23.33;3.88;;;9.60;99.90;;;;;;5033561;28;20102;-67
2022/10/03 03:12:08;;;;;;;14.85;2.50;;;9.60;99.90;;;;;;5073574;28;20032;-67
2022/10/03 03:14:45;;;;;;;13.15;1.50;;;9.50;99.90;;;;;;5068956;28;20037;-67
2022/10/03 03:17:49;;;;;;;24.08;3.90;;;9.40;99.90;;;;;;5067145;28;20128;-68
2022/10/03 03:21:17;;;;;;;16.42;3.30;;;9.40;99.90;;;;;;5037591;28;20044;-68
2022/10/03 03:24:12;;;;;;;20.63;3.17;;;9.30;99.90;;;;;;5017958;28;20136;-67
2022/10/03 03:26:48;;;;;;;18.27;3.55;;;9.60;99.90;;;;;;4984122;28;20567;-68
2022/10/03 03:29:46;;;;;;;24.38;3.60;;;9.50;99.90;;;;;;5035530;28;20052;-67
2022/10/03 03:32:26;;;;;;;8.88;2.08;;;9.50;99.90;;;;;;5064170;28;20479;-67
2022/10/03 03:35:02;;;;;;;14.75;2.67;;;9.60;99.90;;;;;;5036590;28;20057;-68
2022/10/03 03:38:06;;;;;;;27.00;3.97;;;9.40;99.90;;;;;;5037094;28;20099;-68
2022/10/03 03:40:39;;;;;;;17.58;3.72;;;9.30;99.90;;;;;;5038604;28;20470;-68
2022/10/03 03:43:37;;;;;;;18.83;3.40;;;9.40;99.90;;;;;;5062669;28;20495;-68
2022/10/03 03:46:12;;;;;;;20.85;3.80;;;9.60;99.90;;;;;;5029855;28;20049;-67
2022/10/03 03:49:03;;;;;;;21.83;3.50;;;9.60;99.90;;;;;;5062039;28;20392;-68
2022/10/03 03:51:40;;;;;;;21.65;3.78;;;9.50;99.90;;;;;;5030922;28;20051;-67
2022/10/03 03:54:43;;;;;;;21.38;3.33;;;9.50;99.90;;;;;;5035526;28;20037;-67
2022/10/03 03:57:45;;;;;;;24.05;3.30;;;9.40;99.90;;;;;;5038505;28;20051;-68
2022/10/03 04:00:16;;;;;;;20.38;2.95;;;9.40;99.90;;;;;;5032216;28;20030;-68
2022/10/03 04:02:57;;;;;;;23.55;3.33;;;9.50;99.90;;;;;;5033611;28;20047;-68
2022/10/03 04:05:43;;;;;;;25.15;3.60;;;9.40;99.90;;;;;;5069732;28;20495;-68
2022/10/03 04:08:42;;;;;;;18.98;3.10;;;9.50;99.90;;;;;;5041356;28;20029;-68
2022/10/03 04:11:32;;;;;;;19.90;3.38;;;9.50;99.90;;;;;;5031543;28;20055;-68
2022/10/03 04:14:25;;;;;;;21.65;3.65;;;9.40;99.90;;;;;;5043008;28;20120;-67
2022/10/03 04:20:00;;;;;;;28.67;3.60;;;9.50;99.90;;;;;;5037319;28;20059;-68
2022/10/03 04:22:27;;;;;;;25.65;4.00;;;9.40;99.90;;;;;;5032753;28;20392;-67
2022/10/03 04:25:07;;;;;;;26.48;4.18;;;9.40;99.90;;;;;;5036726;28;20106;-67
2022/10/03 04:28:13;;;;;;;24.48;3.95;;;9.30;99.90;;;;;;5032082;28;20388;-66
2022/10/03 04:31:10;;;;;;;20.45;4.35;;;9.30;99.90;;;;;;5038214;28;20504;-67
2022/10/03 04:34:06;;;;;;;24.00;4.18;;;9.30;99.90;;;;;;5043345;28;20484;-68
2022/10/03 04:36:47;;;;;;;31.48;4.25;;;9.40;99.90;;;;;;5042167;28;20510;-66
2022/10/03 04:39:36;;;;;;;32.50;4.82;;;9.40;99.90;;;;;;5033131;28;20129;-66
2022/10/03 04:42:25;;;;;;;29.33;4.45;;;9.40;99.90;;;;;;5042651;28;20053;-66
2022/10/03 04:45:29;;;;;;;31.95;4.63;;;9.30;99.90;;;;;;5071106;28;20051;-66
2022/10/03 04:48:21;;;;;;;21.70;4.40;;;9.40;99.90;;;;;;5037134;28;20123;-66
2022/10/03 04:51:33;;;;;;;14.95;4.03;;;9.30;99.90;;;;;;5070650;28;20221;-66
2022/10/03 04:54:30;;;;;;;21.30;3.90;;;9.30;99.90;;;;;;4977259;28;20037;-66
2022/10/03 04:57:08;;;;;;;4.82;1.40;;;9.30;99.90;;;;;;5011474;28;20052;-66
2022/10/03 04:59:36;;;;;;;2.72;1.00;;;9.30;99.90;;;;;;5039382;28;20064;-66
2022/10/03 05:02:19;;;;;;;2.03;0.65;;;9.20;99.90;;;;;;5069340;28;20701;-66
2022/10/03 05:05:06;;;;;;;;;;;9.00;99.90;;;;;;5068788;28;20148;-66
2022/10/03 05:07:44;;;;;;;7.07;0.73;;;8.70;99.90;;;;;;5071474;28;19927;-66
2022/10/03 05:10:34;;;;;;;8.93;1.40;;;8.60;99.90;;;;;;5065892;28;20074;-66
2022/10/03 05:13:17;;;;;;;72.40;3.17;;;8.50;99.90;;;;;;5039359;28;20116;-66
2022/10/03 05:16:12;;;;;;;82.97;3.80;;;8.50;99.90;;;;;;5041606;28;20041;-66
2022/10/03 05:18:47;;;;;;;50.38;3.22;;;8.60;99.90;;;;;;5042898;28;20064;-66
2022/10/03 05:21:19;;;;;;;178.90;6.65;;;8.60;99.90;;;;;;5073510;28;20037;-66
2022/10/03 05:24:04;;;;;;;12.57;2.28;;;8.70;99.90;;;;;;5044352;28;20037;-66
2022/10/03 05:27:10;;;;;;;9.25;1.50;;;8.60;99.90;;;;;;5046921;28;20037;-66
2022/10/03 05:29:42;;;;;;;2.88;0.70;;;8.50;99.90;;;;;;5037680;28;20072;-66
2022/10/03 05:32:32;;;;;;;1.70;1.05;;;8.50;99.90;;;;;;5017331;28;20378;-66
2022/10/03 05:35:16;;;;;;;3.92;1.00;;;8.30;99.90;;;;;;5041007;28;20053;-66
2022/10/03 05:38:18;;;;;;;4.35;1.45;;;8.20;99.90;;;;;;5040397;28;20041;-66
2022/10/03 05:41:06;;;;;;;14.23;1.92;;;8.00;99.90;;;;;;5037245;28;20069;-66
2022/10/03 05:43:59;;;;;;;27.02;3.92;;;8.00;99.90;;;;;;5067022;28;20078;-66
2022/10/03 05:46:57;;;;;;;29.48;3.72;;;8.20;99.90;;;;;;5035689;28;20045;-66
2022/10/03 05:49:39;;;;;;;21.95;4.90;;;8.40;99.90;;;;;;5022712;28;20099;-66
2022/10/03 05:52:07;;;;;;;21.27;4.40;;;8.70;99.90;;;;;;5035866;28;20060;-66
2022/10/03 05:54:44;;;;;;;22.00;4.57;;;8.80;99.90;;;;;;5065333;28;20034;-65
2022/10/03 05:57:28;;;;;;;21.30;4.72;;;8.90;99.90;;;;;;5065888;28;20042;-65
2022/10/03 06:00:04;;;;;;;28.77;5.30;;;8.80;99.90;;;;;;5035406;28;20036;-66
2022/10/03 06:02:48;;;;;;;26.25;5.25;;;8.90;99.90;;;;;;5072368;28;20368;-66
2022/10/03 06:05:28;;;;;;;22.77;6.13;;;9.00;99.90;;;;;;5034067;28;20037;-66
2022/10/03 06:08:39;;;;;;;26.45;5.35;;;8.90;99.90;;;;;;5044013;28;20472;-66
2022/10/03 06:11:33;;;;;;;20.17;3.28;;;8.90;99.90;;;;;;5059959;28;20052;-66
2022/10/03 06:14:17;;;;;;;3.28;0.95;;;8.90;99.90;;;;;;5052926;28;20475;-65
2022/10/03 06:17:14;;;;;;;2.90;1.00;;;8.70;99.90;;;;;;5076884;28;20124;-65
2022/10/03 06:19:51;;;;;;;13.23;1.45;;;8.70;99.90;;;;;;5037532;28;20052;-65
2022/10/03 06:22:32;;;;;;;6.05;1.30;;;8.40;99.90;;;;;;5043197;28;20082;-65
2022/10/03 06:25:27;;;;;;;9.38;1.30;;;8.30;99.90;;;;;;5074595;28;20040;-65
2022/10/03 06:28:34;;;;;;;3.30;1.40;;;8.20;99.90;;;;;;5043214;28;20138;-65
2022/10/03 06:31:25;;;;;;;31.30;3.78;;;8.20;99.90;;;;;;4961273;28;20042;-65
2022/10/03 06:34:03;;;;;;;24.95;3.22;;;8.20;99.90;;;;;;4966834;28;20485;-65
2022/10/03 06:36:55;;;;;;;12.15;3.53;;;8.40;99.90;;;;;;5023835;28;20080;-65
2022/10/03 06:39:59;;;;;;;21.02;4.68;;;8.50;99.90;;;;;;5078845;28;20103;-65
2022/10/03 06:42:51;;;;;;;16.40;4.30;;;8.50;99.90;;;;;;5029281;28;20084;-65
2022/10/03 06:45:47;;;;;;;17.25;4.32;;;8.70;99.90;;;;;;5074826;28;20094;-65
2022/10/03 06:48:23;;;;;;;18.58;5.28;;;8.70;99.90;;;;;;5043485;28;20044;-65
2022/10/03 06:51:18;;;;;;;23.58;5.95;;;8.80;99.90;;;;;;5044606;28;20396;-66
2022/10/03 06:54:01;;;;;;;21.58;6.15;;;8.90;99.90;;;;;;5071519;28;20124;-65
2022/10/03 06:56:32;;;;;;;;;;;9.00;99.90;;;;;;5036510;28;20450;-65
2022/10/03 06:59:03;;;;;;;20.23;5.60;;;9.00;99.90;;;;;;5042724;28;19920;-65
2022/10/03 07:01:41;;;;;;;23.15;5.50;;;9.10;99.90;;;;;;5074306;28;20080;-65
2022/10/03 07:04:49;;;;;;;25.25;5.85;;;9.10;99.90;;;;;;5076080;28;20526;-66
2022/10/03 07:07:33;;;;;;;19.90;5.85;;;9.20;99.90;;;;;;5077831;28;20037;-66
2022/10/03 07:10:13;;;;;;;16.30;5.68;;;9.30;99.90;;;;;;5040952;28;20294;-66
2022/10/03 07:13:05;;;;;;;29.77;7.57;;;9.40;99.90;;;;;;5042938;28;20037;-67
2022/10/03 07:16:16;;;;;;;23.80;6.90;;;9.50;99.90;;;;;;5073530;28;20047;-68
2022/10/03 07:19:09;;;;;;;26.17;6.22;;;9.60;99.90;;;;;;5045067;28;20045;-67
2022/10/03 07:22:04;;;;;;;;;;;9.80;99.90;;;;;;5053551;28;20080;-67
2022/10/03 07:24:44;;;;;;;26.58;6.78;;;9.80;99.90;;;;;;4993887;28;20340;-67
2022/10/03 07:27:25;;;;;;;21.83;7.22;;;10.00;99.90;;;;;;5042368;28;20052;-67
2022/10/03 07:30:20;;;;;;;28.25;7.28;;;10.20;99.90;;;;;;5043338;28;20049;-66
2022/10/03 07:33:04;;;;;;;31.88;7.10;;;10.20;99.90;;;;;;5039047;28;20164;-66
2022/10/03 07:38:56;;;;;;;30.65;6.82;;;10.50;99.90;;;;;;5046662;28;20061;-66
2022/10/03 07:38:58;;;;;;;32.72;6.10;;;10.70;99.90;;;;;;5050752;28;20091;-67
2022/10/03 07:41:31;;;;;;;32.30;6.50;;;10.80;99.90;;;;;;5042146;28;20836;-67
2022/10/03 07:43:56;;;;;;;20.75;5.93;;;10.90;99.90;;;;;;5043732;28;20087;-67
2022/10/03 07:46:42;;;;;;;24.20;5.82;;;11.10;99.90;;;;;;5071410;28;20124;-67
2022/10/03 07:49:46;;;;;;;24.35;5.35;;;11.20;99.90;;;;;;5045087;28;20033;-66
2022/10/03 07:53:03;;;;;;;30.15;5.30;;;11.30;99.90;;;;;;5041750;28;20032;-67
2022/10/03 07:55:44;;;;;;;19.25;4.25;;;11.50;99.90;;;;;;5035531;28;20128;-66
2022/10/03 07:58:48;;;;;;;21.95;4.75;;;11.50;99.90;;;;;;5040695;28;20047;-69
2022/10/03 08:01:16;;;;;;;21.98;4.47;;;11.60;99.90;;;;;;5048519;28;21280;-68
2022/10/03 08:04:14;;;;;;;22.88;5.15;;;11.70;99.90;;;;;;5045947;28;20045;-68
2022/10/03 08:06:44;;;;;;;20.48;5.03;;;11.80;99.90;;;;;;5036109;28;20076;-67
2022/10/03 08:09:38;;;;;;;33.38;4.30;;;11.90;99.90;;;;;;5038952;28;20033;-68
2022/10/03 08:12:35;;;;;;;18.27;3.55;;;12.20;99.90;;;;;;5036970;28;20064;-68
2022/10/03 08:15:20;;;;;;;21.95;3.70;;;12.30;99.90;;;;;;5048144;28;20120;-68
2022/10/03 08:18:05;;;;;;;22.33;3.90;;;12.40;99.90;;;;;;5047794;28;20083;-67
2022/10/03 08:20:59;;;;;;;17.75;4.38;;;12.50;99.90;;;;;;5047890;28;20112;-68
2022/10/03 08:23:31;;;;;;;18.52;2.80;;;12.50;99.90;;;;;;5064018;28;20028;-67
2022/10/03 08:26:21;;;;;;;18.02;3.25;;;12.70;99.90;;;;;;5031959;28;20048;-67
2022/10/03 08:29:00;;;;;;;20.77;3.00;;;12.70;99.90;;;;;;5028367;28;20473;-67
2022/10/03 08:31:54;;;;;;;11.35;2.80;;;12.90;99.90;;;;;;5028815;28;20489;-67
2022/10/03 08:34:45;;;;;;;14.15;2.50;;;12.80;99.90;;;;;;5025375;28;20024;-68
2022/10/03 08:37:14;;;;;;;12.45;2.53;;;13.00;99.90;;;;;;5047913;28;20041;-68
2022/10/03 08:40:06;;;;;;;14.15;2.83;;;13.00;99.90;;;;;;5045173;28;20065;-66
2022/10/03 08:43:02;;;;;;;17.63;3.20;;;13.20;99.90;;;;;;5038572;28;20095;-65
2022/10/03 08:46:00;;;;;;;22.23;2.55;;;13.20;99.90;;;;;;5047425;28;20150;-67
2022/10/03 08:48:47;;;;;;;13.98;2.80;;;13.40;99.90;;;;;;5049837;28;20132;-66
2022/10/03 08:51:31;;;;;;;13.50;2.70;;;13.40;99.90;;;;;;5041188;28;20033;-67
2022/10/03 08:54:08;;;;;;;15.80;2.28;;;13.60;99.90;;;;;;5036018;28;20094;-66
2022/10/03 08:56:51;;;;;;;14.32;2.25;;;13.70;99.90;;;;;;5043515;28;20044;-69
2022/10/03 08:59:38;;;;;;;18.38;2.50;;;13.90;99.90;;;;;;5045414;28;20396;-68
2022/10/03 09:02:26;;;;;;;17.98;2.55;;;14.10;99.90;;;;;;5037269;28;20111;-70
2022/10/03 09:05:37;;;;;;;12.07;2.25;;;14.10;99.90;;;;;;5056571;28;20128;-68
2022/10/03 09:08:40;;;;;;;19.35;2.33;;;14.20;99.90;;;;;;5050634;28;20052;-69
2022/10/03 09:11:36;;;;;;;21.40;2.10;;;14.30;99.90;;;;;;5052193;28;20033;-70
2022/10/03 09:14:35;;;;;;;16.83;2.10;;;14.30;99.90;;;;;;5023673;28;20484;-68
2022/10/03 09:17:37;;;;;;;13.02;2.08;;;14.50;99.90;;;;;;5052345;28;20037;-69
2022/10/03 09:20:18;;;;;;;11.57;1.88;;;14.60;99.90;;;;;;5075479;28;20120;-68
2022/10/03 09:23:05;;;;;;;15.98;2.50;;;14.70;99.90;;;;;;5048543;28;20041;-67
2022/10/03 09:25:56;;;;;;;17.27;2.20;;;14.70;99.90;;;;;;5046773;28;20041;-66
2022/10/03 09:28:40;;;;;;;14.32;1.95;;;14.80;99.90;;;;;;5050689;28;20048;-70
2022/10/03 09:31:47;;;;;;;18.65;2.10;;;14.80;99.90;;;;;;5046435;28;20182;-68
2022/10/03 09:34:53;;;;;;;12.68;1.80;;;14.90;99.90;;;;;;5036486;28;20037;-66
2022/10/03 09:37:54;;;;;;;12.32;1.60;;;15.00;99.90;;;;;;5076649;28;20426;-66
2022/10/03 09:40:44;;;;;;;13.38;1.70;;;15.00;99.90;;;;;;5044314;28;20585;-68
2022/10/03 09:43:36;;;;;;;14.75;2.10;;;15.10;99.90;;;;;;5074546;28;20045;-65
2022/10/03 09:46:24;;;;;;;12.98;1.50;;;15.20;99.90;;;;;;5030994;28;20048;-66
2022/10/03 09:49:03;;;;;;;14.32;1.50;;;15.20;99.90;;;;;;5032337;28;20491;-66
2022/10/03 09:52:01;;;;;;;12.02;1.40;;;15.30;99.90;;;;;;5031319;28;20779;-64
2022/10/03 09:54:57;;;;;;;12.38;1.80;;;15.30;99.90;;;;;;5079054;28;20124;-67
2022/10/03 09:58:10;;;;;;;15.90;2.00;;;15.40;99.90;;;;;;5040818;28;20068;-66
2022/10/03 10:01:13;;;;;;;11.93;1.42;;;15.40;99.90;;;;;;5031266;28;20140;-69
2022/10/03 10:04:25;;;;;;;16.42;2.70;;;15.50;99.90;;;;;;5051619;28;20450;-67
2022/10/03 10:07:19;;;;;;;12.43;1.70;;;15.50;99.90;;;;;;5048732;28;20044;-65
2022/10/03 10:09:54;;;;;;;13.23;1.63;;;15.60;99.90;;;;;;5046585;28;20400;-65
2022/10/03 10:12:28;;;;;;;11.10;1.73;;;15.70;99.90;;;;;;5051085;28;20603;-71
2022/10/03 10:15:41;;;;;;;6.13;1.45;;;15.80;99.90;;;;;;5050923;28;20450;-71
2022/10/03 10:18:39;;;;;;;13.65;2.05;;;15.90;99.90;;;;;;5028601;28;20052;-66
2022/10/03 10:21:23;;;;;;;13.60;1.67;;;15.90;99.90;;;;;;5051545;28;20534;-66
2022/10/03 10:24:26;;;;;;;13.25;2.05;;;15.80;99.90;;;;;;5049383;28;20662;-66
2022/10/03 10:27:18;;;;;;;12.32;1.80;;;15.90;99.90;;;;;;5045646;28;20056;-68
2022/10/03 10:29:52;;;;;;;9.27;1.35;;;15.90;99.90;;;;;;5048918;28;20071;-68
2022/10/03 10:33:03;;;;;;;13.57;2.13;;;15.90;99.90;;;;;;5047129;28;20037;-68
2022/10/03 10:36:00;;;;;;;8.95;1.38;;;16.00;99.90;;;;;;5031780;28;20041;-67
2022/10/03 10:38:59;;;;;;;12.90;1.83;;;16.00;99.90;;;;;;5044577;28;20052;-66
2022/10/03 10:41:49;;;;;;;12.82;1.80;;;16.10;99.90;;;;;;5078414;28;20047;-69
2022/10/03 10:44:33;;;;;;;8.40;1.40;;;16.00;99.90;;;;;;5034554;28;20042;-73
2022/10/03 10:47:37;;;;;;;9.23;1.45;;;15.90;99.90;;;;;;5046139;28;20128;-72
2022/10/03 10:50:35;;;;;;;9.98;1.50;;;15.90;99.90;;;;;;5047393;28;20665;-73
2022/10/03 10:53:46;;;;;;;15.40;1.70;;;15.90;99.90;;;;;;5077025;28;20124;-67
2022/10/03 10:56:25;;;;;;;9.15;1.73;;;15.90;99.90;;;;;;5048154;28;20056;-67
2022/10/03 10:59:33;;;;;;;11.10;1.40;;;16.00;99.90;;;;;;5050893;28;20080;-72
2022/10/03 11:02:27;;;;;;;13.77;2.15;;;16.10;99.90;;;;;;5009577;28;20392;-65
2022/10/03 11:05:17;;;;;;;19.17;1.88;;;16.20;99.90;;;;;;5050421;28;20120;-65
2022/10/03 11:08:11;;;;;;;9.85;1.60;;;16.20;99.90;;;;;;5033373;28;20076;-66
2022/10/03 11:11:14;;;;;;;11.52;1.80;;;16.20;99.90;;;;;;5046509;28;20051;-69
2022/10/03 11:14:07;;;;;;;12.30;1.70;;;16.10;99.90;;;;;;5041819;28;20053;-72
2022/10/03 11:17:10;;;;;;;14.55;2.30;;;16.00;99.90;;;;;;5038554;28;20037;-72
2022/10/03 11:20:09;;;;;;;12.45;1.70;;;16.00;99.90;;;;;;5048652;28;20030;-72
2022/10/03 11:22:37;;;;;;;16.52;2.13;;;16.00;99.90;;;;;;5037479;28;20037;-66
2022/10/03 11:25:34;;;;;;;12.50;1.95;;;15.90;99.90;;;;;;5030240;28;20077;-73
2022/10/03 11:28:15;;;;;;;11.02;1.65;;;16.10;99.90;;;;;;5036307;28;20122;-70
2022/10/03 11:31:02;;;;;;;16.15;2.05;;;16.20;99.90;;;;;;5063775;28;20107;-69
2022/10/03 11:33:43;;;;;;;13.95;1.88;;;16.30;99.90;;;;;;5034961;28;20096;-70
2022/10/03 11:36:37;;;;;;;8.57;1.77;;;16.30;99.90;;;;;;5049875;28;20044;-70
2022/10/03 11:39:04;;;;;;;13.13;2.00;;;16.40;99.90;;;;;;5050288;28;20047;-66
2022/10/03 11:41:45;;;;;;;11.68;1.77;;;16.50;99.90;;;;;;5032000;28;20483;-72
2022/10/03 11:44:47;;;;;;;14.30;1.90;;;16.60;99.90;;;;;;5024878;28;20037;-69
2022/10/03 11:47:50;;;;;;;10.25;1.70;;;16.70;99.90;;;;;;5028669;28;20060;-68
2022/10/03 11:50:21;;;;;;;12.68;2.00;;;16.80;99.90;;;;;;5041940;28;20049;-67
2022/10/03 11:53:22;;;;;;;12.77;1.70;;;16.90;99.90;;;;;;5044092;28;20041;-66
2022/10/03 11:55:53;;;;;;;8.55;1.70;;;16.80;99.90;;;;;;5049560;28;20040;-69
2022/10/03 11:58:51;;;;;;;14.07;2.00;;;16.80;99.90;;;;;;5047855;28;20112;-72
2022/10/03 12:01:23;;;;;;;10.75;1.63;;;16.70;99.90;;;;;;5077011;28;20045;-68
2022/10/03 12:04:26;;;;;;;11.07;1.48;;;16.60;99.90;;;;;;5049201;28;20496;-67
2022/10/03 12:09:59;;;;;;;12.18;1.60;;;16.60;99.90;;;;;;5030159;28;20330;-69
2022/10/03 12:12:32;;;;;;;10.20;1.63;;;16.50;99.90;;;;;;5057102;28;20412;-71
2022/10/03 12:15:31;;;;;;;9.48;1.63;;;16.60;99.90;;;;;;5042800;28;20041;-68
2022/10/03 12:18:09;;;;;;;16.55;1.67;;;16.70;99.90;;;;;;5049767;28;20128;-70
2022/10/03 12:20:43;;;;;;;14.05;2.13;;;16.80;99.90;;;;;;5048955;28;20068;-66
2022/10/03 12:23:40;;;;;;;16.20;1.80;;;16.80;99.90;;;;;;5047673;28;20480;-68
2022/10/03 12:26:11;;;;;;;13.38;1.38;;;16.90;99.90;;;;;;5045412;28;20037;-66
2022/10/03 12:28:40;;;;;;;9.52;1.73;;;17.00;99.90;;;;;;5041991;28;20044;-66
2022/10/03 12:31:16;;;;;;;9.73;1.48;;;17.10;99.90;;;;;;5044732;28;20107;-73
2022/10/03 12:34:06;;;;;;;13.57;1.90;;;17.20;99.90;;;;;;5032769;28;20399;-72
2022/10/03 12:37:03;;;;;;;12.20;1.65;;;17.10;99.90;;;;;;5034824;28;20048;-68
2022/10/03 12:39:50;;;;;;;9.30;1.63;;;16.90;99.90;;;;;;5035417;28;20041;-65
2022/10/03 12:42:15;;;;;;;5.45;1.30;;;16.90;99.90;;;;;;5033164;28;20045;-66
2022/10/03 12:44:55;;;;;;;12.95;1.60;;;16.70;99.90;;;;;;5046035;28;20465;-68
2022/10/03 12:47:27;;;;;;;13.23;1.77;;;16.70;99.90;;;;;;5042260;28;20049;-65
2022/10/03 12:50:21;;;;;;;10.60;1.48;;;16.60;99.90;;;;;;5048490;28;20395;-73
2022/10/03 12:53:16;;;;;;;10.35;1.70;;;16.60;99.90;;;;;;5028337;28;20468;-66
2022/10/03 12:56:01;;;;;;;11.75;1.50;;;16.80;99.90;;;;;;5036706;28;20041;-66
2022/10/03 12:58:45;;;;;;;8.32;1.70;;;16.90;99.90;;;;;;5031082;28;20038;-67
2022/10/03 13:01:23;;;;;;;9.63;1.58;;;17.00;99.90;;;;;;5055832;28;20256;-66
2022/10/03 13:03:59;;;;;;;11.75;1.65;;;17.00;99.90;;;;;;5047186;28;20063;-65
2022/10/03 13:06:32;;;;;;;8.20;1.20;;;17.10;99.90;;;;;;5041368;28;20400;-65
2022/10/03 13:09:07;;;;;;;7.15;1.83;;;17.00;99.90;;;;;;5028836;28;20045;-67
2022/10/03 13:12:00;;;;;;;15.40;2.00;;;17.00;99.90;;;;;;5035211;28;20409;-69
2022/10/03 13:14:38;;;;;;;11.88;1.63;;;17.10;99.90;;;;;;5043419;28;20033;-68
2022/10/03 13:17:18;;;;;;;11.65;1.80;;;17.20;99.90;;;;;;5041826;28;20049;-67
2022/10/03 13:19:56;;;;;;;10.88;1.60;;;17.20;99.90;;;;;;5042406;28;20049;-68
2022/10/03 13:22:38;;;;;;;11.90;1.50;;;17.30;99.90;;;;;;5046347;28;20071;-65
2022/10/03 13:25:07;;;;;;;;;;;17.30;99.90;;;;;;5046748;28;20063;-69
2022/10/03 13:28:08;;;;;;;9.07;1.40;;;17.30;99.90;;;;;;5044340;28;19943;-68
2022/10/03 13:30:46;;;;;;;10.88;1.50;;;17.40;99.90;;;;;;5036406;28;20052;-69
2022/10/03 13:33:19;;;;;;;12.77;1.80;;;17.40;99.90;;;;;;5040048;28;20207;-66
2022/10/03 13:36:04;;;;;;;7.55;1.52;;;17.40;99.90;;;;;;5041890;28;20123;-67
2022/10/03 13:38:57;;;;;;;5.75;1.52;;;17.50;99.90;;;;;;5051446;28;20373;-66
2022/10/03 13:41:50;;;;;;;11.05;1.70;;;17.40;99.90;;;;;;5044272;28;20104;-68
2022/10/03 13:44:21;;;;;;;15.73;1.67;;;17.40;99.90;;;;;;5034414;28;20038;-67
2022/10/03 13:47:22;;;;;;;8.82;1.38;;;17.30;99.90;;;;;;5074518;28;20033;-66
2022/10/03 13:49:54;;;;;;;12.50;1.30;;;17.30;99.90;;;;;;5041636;28;20041;-66
2022/10/03 13:52:56;;;;;;;9.73;1.40;;;17.30;99.90;;;;;;5043715;28;20386;-67
2022/10/03 13:55:28;;;;;;;12.23;1.60;;;17.30;99.90;;;;;;5042839;28;20041;-66
2022/10/03 13:58:16;;;;;;;8.95;1.88;;;17.30;99.90;;;;;;5042718;28;20045;-67
2022/10/03 14:01:03;;;;;;;11.00;1.77;;;17.20;99.90;;;;;;5044615;28;20056;-66
2022/10/03 14:04:07;;;;;;;10.63;2.05;;;17.20;99.90;;;;;;5039653;28;20034;-66
2022/10/03 14:06:45;;;;;;;11.70;1.83;;;17.10;99.90;;;;;;5033915;28;20080;-67
2022/10/03 14:09:23;;;;;;;13.48;1.90;;;17.00;99.90;;;;;;5070447;28;20048;-68
2022/10/03 14:12:08;;;;;;;7.93;1.40;;;17.00;99.90;;;;;;5045933;28;20384;-71
2022/10/03 14:14:42;;;;;;;11.65;1.80;;;16.90;99.90;;;;;;5041996;28;20033;-65
2022/10/03 14:17:21;;;;;;;10.80;2.17;;;17.00;99.90;;;;;;5069532;28;20040;-67
2022/10/03 14:19:55;;;;;;;13.52;1.55;;;16.90;99.90;;;;;;5075410;28;20440;-67
2022/10/03 14:22:42;;;;;;;10.60;1.60;;;17.00;99.90;;;;;;5039249;28;20456;-66
2022/10/03 14:25:21;;;;;;;9.38;1.85;;;16.90;99.90;;;;;;5074999;28;20068;-67
2022/10/03 14:28:00;;;;;;;7.10;1.75;;;16.90;99.90;;;;;;5044934;28;20140;-69
2022/10/03 14:30:53;;;;;;;10.23;1.75;;;16.80;99.90;;;;;;5038129;28;20496;-65
2022/10/03 14:33:45;;;;;;;9.27;1.60;;;16.70;99.90;;;;;;5074209;28;20049;-66
2022/10/03 14:36:20;;;;;;;11.95;1.90;;;16.70;99.90;;;;;;5034211;28;20053;-68
2022/10/03 14:39:04;;;;;;;10.50;1.58;;;16.60;99.90;;;;;;5070913;28;20095;-66